Aeroporto :
LOGIN :

Iscrizione | Disclaimer

   EN    FR    IT 

 










Sommario :    VFR   VFR Marginale   IFR   IFR Intensivo   IFR Molto Intensivo
Visibilità : 
Base nubi : 
>= 8 km
>= 3000ft
5 / 8 km
1000 / 3000 ft
1500m / 5 km
500 / 1000 ft
800 / 1500m
200 / 500 ft
< 800m
< 200 ft
Simboli :   Temporali  Nebbia  Neve Forte  Precipitazioni Forti  Vento > 20 kt
SIGMETs :   Varie  Temporali  Ghiacco  Turbolenza  Onda orograficha  Ceneri Vulcaniche






- Altitudine del aeroporto : 453 ft
- Codice IATA : SBK


LFRT - St Brieuc Armor

ULTIMO METAR :
  • 191900Z AUTO 23007KT 200V260 9999 FEW017 SCT027 BKN032 09/06 Q1022

METARs OBSOLETI :
  • 191830Z AUTO 24008KT 200V270 9999 BKN044 09/06 Q1022
  • 191800Z AUTO 24011KT 200V260 9999 FEW021 BKN044 OVC050 09/06 Q1023
  • 191730Z AUTO 24008KT 190V270 9999 BKN022 BKN029 OVC044 10/06 Q1023
  • 191700Z AUTO 25009KT 9999 SCT023 SCT032 BKN040 10/06 Q1023
  • 191630Z AUTO 25012KT 9999 FEW020 BKN048 BKN240 10/06 Q1023

Previsioni scadute.



MetMap, La meteo Aeronautica in un colpo d'occhio ! - Copyright ORBIFLY Dicembre 2007 - Disclaimer

ORBIFLY MET'MAP TEAM :

Programmazione e sviluppo : Alexandra Zaïnal
Concezione : Baudouin d'Aumeries
Aiuto per la programmazione : Marc-Olivier Méhu
Supporto tecnico e logistico : Manuel Goepfert
Aiuto per la traduzione : Arnaldo La Scala

Contatto : metmap@orbifly.com




FONTI E CREDITI :

   NOAA